createdAt,value
2022-08-19T00:00:57.330Z,10.23
2022-08-19T00:03:44.885Z,10.63
2022-08-19T00:06:32.923Z,10.47
2022-08-19T00:09:21.314Z,10.93
2022-08-19T00:12:08.436Z,10.50
2022-08-19T00:14:55.205Z,9.87
2022-08-19T00:17:46.620Z,9.80
2022-08-19T00:20:33.749Z,9.67
2022-08-19T00:23:20.622Z,10.40
2022-08-19T00:26:07.942Z,10.57
2022-08-19T00:28:54.459Z,10.73
2022-08-19T00:31:43.748Z,9.90
2022-08-19T00:34:32.467Z,10.33
2022-08-19T00:37:19.660Z,9.70
2022-08-19T00:40:11.557Z,10.10
2022-08-19T00:42:58.366Z,10.27
2022-08-19T00:45:45.247Z,10.70
2022-08-19T00:48:31.894Z,10.03
2022-08-19T00:51:20.353Z,10.07
2022-08-19T00:54:07.412Z,9.80
2022-08-19T00:56:55.203Z,10.07
2022-08-19T00:59:56.391Z,10.10
2022-08-19T01:02:48.965Z,10.10
2022-08-19T01:05:36.953Z,10.83
2022-08-19T01:08:25.733Z,10.50
2022-08-19T01:11:12.402Z,10.00
2022-08-19T01:13:59.477Z,10.27
2022-08-19T01:16:48.867Z,11.23
2022-08-19T01:19:43.708Z,10.67
2022-08-19T01:22:36.175Z,10.80
2022-08-19T01:25:27.853Z,10.83
2022-08-19T01:28:33.973Z,10.77
2022-08-19T01:31:26.918Z,10.83
2022-08-19T01:34:14.532Z,10.53
2022-08-19T01:37:04.374Z,11.23
2022-08-19T01:39:52.605Z,11.03
2022-08-19T01:42:40.436Z,11.57
2022-08-19T01:45:31.443Z,11.37
2022-08-19T01:48:21.839Z,10.97
2022-08-19T01:51:11.880Z,10.90
2022-08-19T01:54:03.242Z,11.90
2022-08-19T01:56:53.080Z,10.30
2022-08-19T01:59:43.139Z,9.70
2022-08-19T02:02:30.789Z,11.07
2022-08-19T02:05:19.041Z,10.37
2022-08-19T02:08:06.186Z,10.40
2022-08-19T02:10:52.928Z,10.90
2022-08-19T02:13:41.463Z,11.00
2022-08-19T02:16:28.639Z,10.87
2022-08-19T02:19:15.821Z,9.40
2022-08-19T02:22:02.780Z,9.57
2022-08-19T02:24:50.030Z,9.13
2022-08-19T02:27:36.723Z,9.93
2022-08-19T02:30:25.721Z,9.77
2022-08-19T02:33:12.405Z,9.83
2022-08-19T02:35:59.089Z,9.90
2022-08-19T02:38:54.330Z,10.13
2022-08-19T02:41:42.017Z,9.50
2022-08-19T02:44:31.832Z,8.73
2022-08-19T02:47:20.606Z,10.00
2022-08-19T02:50:08.114Z,9.40
2022-08-19T02:52:54.930Z,9.20
2022-08-19T02:55:46.839Z,9.37
2022-08-19T02:58:33.631Z,8.73
2022-08-19T03:01:25.852Z,8.07
2022-08-19T03:04:15.520Z,9.00
2022-08-19T03:07:10.798Z,8.17
2022-08-19T03:09:57.734Z,9.07
2022-08-19T03:12:44.386Z,8.90
2022-08-19T03:15:31.850Z,8.13
2022-08-19T03:18:19.106Z,8.43
2022-08-19T03:21:07.783Z,8.73
2022-08-19T03:24:00.834Z,9.00
2022-08-19T03:26:50.266Z,8.37
2022-08-19T03:29:43.336Z,8.67
2022-08-19T03:32:33.038Z,8.70
2022-08-19T03:35:21.320Z,8.60
2022-08-19T03:38:09.284Z,8.67
2022-08-19T03:40:56.070Z,9.30
2022-08-19T03:43:43.945Z,8.97
2022-08-19T03:46:32.786Z,7.90
2022-08-19T03:49:20.573Z,9.17
2022-08-19T03:52:08.600Z,8.40
2022-08-19T03:54:56.719Z,9.17
2022-08-19T03:57:43.453Z,8.70
2022-08-19T04:00:30.198Z,8.97
2022-08-19T04:03:21.310Z,9.07
2022-08-19T04:06:13.747Z,9.17
2022-08-19T04:09:06.090Z,8.77
2022-08-19T04:11:56.745Z,8.47
2022-08-19T04:14:43.461Z,7.93
2022-08-19T04:17:30.340Z,8.67
2022-08-19T04:20:24.014Z,9.03
2022-08-19T04:23:11.589Z,8.83
2022-08-19T04:25:59.843Z,9.00
2022-08-19T04:29:11.683Z,9.40
2022-08-19T04:32:09.093Z,8.83
2022-08-19T04:35:01.123Z,8.07
2022-08-19T04:37:52.752Z,8.97
2022-08-19T04:41:00.457Z,8.97
2022-08-19T04:43:49.877Z,9.43
2022-08-19T04:46:40.293Z,9.73
2022-08-19T04:49:37.885Z,8.27
2022-08-19T04:52:24.926Z,8.97
2022-08-19T04:55:13.702Z,8.63
2022-08-19T04:58:05.936Z,8.73
2022-08-19T05:00:53.726Z,9.00
2022-08-19T05:03:42.288Z,8.90
2022-08-19T05:06:34.762Z,9.43
2022-08-19T05:09:22.981Z,9.93
2022-08-19T05:12:10.503Z,9.93
2022-08-19T05:14:59.450Z,9.63
2022-08-19T05:18:06.801Z,9.67
2022-08-19T05:21:15.670Z,10.30
2022-08-19T05:24:03.194Z,10.60
2022-08-19T05:26:53.867Z,10.30
2022-08-19T05:29:42.699Z,10.80
2022-08-19T05:32:30.405Z,11.00
2022-08-19T05:35:20.178Z,11.70
2022-08-19T05:38:10.334Z,10.83
2022-08-19T05:40:58.595Z,11.53
2022-08-19T05:43:46.908Z,11.67
2022-08-19T05:46:34.091Z,10.53
2022-08-19T05:49:21.508Z,11.40
2022-08-19T05:52:11.775Z,11.90
2022-08-19T05:55:00.776Z,12.10
2022-08-19T05:57:47.555Z,11.80
2022-08-19T06:00:34.416Z,12.33
2022-08-19T06:03:21.102Z,12.13
2022-08-19T06:06:10.437Z,12.23
2022-08-19T06:08:57.297Z,12.87
2022-08-19T06:11:48.614Z,12.77
2022-08-19T06:14:41.845Z,12.60
2022-08-19T06:17:28.641Z,13.73
2022-08-19T06:20:34.368Z,13.13
2022-08-19T06:23:25.560Z,12.30
2022-08-19T06:26:14.234Z,13.67
2022-08-19T06:29:02.372Z,12.97
2022-08-19T06:31:51.592Z,13.17
2022-08-19T06:34:38.387Z,13.03
2022-08-19T06:37:25.509Z,14.60
2022-08-19T06:40:13.676Z,14.40
2022-08-19T06:43:03.107Z,14.67
2022-08-19T06:45:54.733Z,14.23
2022-08-19T06:48:45.086Z,15.27
2022-08-19T06:54:30.602Z,14.37
2022-08-19T06:57:18.109Z,15.00
2022-08-19T07:00:12.240Z,15.60
2022-08-19T07:03:05.994Z,14.57
2022-08-19T07:05:54.822Z,15.83
2022-08-19T07:08:42.160Z,15.23
2022-08-19T07:11:30.567Z,16.27
2022-08-19T07:14:19.978Z,15.87
2022-08-19T07:17:09.056Z,16.03
2022-08-19T07:19:58.038Z,15.50
2022-08-19T07:22:52.387Z,16.70
2022-08-19T07:25:41.285Z,15.20
2022-08-19T07:28:27.822Z,14.27
2022-08-19T07:31:17.666Z,15.73
2022-08-19T07:34:08.697Z,16.17
2022-08-19T07:36:57.802Z,15.33
2022-08-19T07:39:44.553Z,16.33
2022-08-19T07:42:31.666Z,15.73
2022-08-19T07:45:18.366Z,14.90
2022-08-19T07:48:06.086Z,15.67
2022-08-19T07:50:52.991Z,15.87
2022-08-19T07:53:41.176Z,16.30
2022-08-19T07:56:28.776Z,15.27
2022-08-19T07:59:15.275Z,16.03
2022-08-19T08:02:03.289Z,14.97
2022-08-19T08:05:07.268Z,16.10
2022-08-19T08:08:11.418Z,14.93
2022-08-19T08:10:59.534Z,15.87
2022-08-19T08:13:46.234Z,15.17
2022-08-19T08:16:35.020Z,15.47
2022-08-19T08:19:25.661Z,15.97
2022-08-19T08:22:34.823Z,15.40
2022-08-19T08:25:25.255Z,15.80
2022-08-19T08:28:17.862Z,16.03
2022-08-19T08:31:09.539Z,16.33
2022-08-19T08:33:56.817Z,15.07
2022-08-19T08:36:48.084Z,15.23
2022-08-19T08:39:34.807Z,15.63
2022-08-19T08:42:27.289Z,15.63
2022-08-19T08:45:18.962Z,15.10
2022-08-19T08:48:24.169Z,14.47
2022-08-19T08:51:20.341Z,14.87
2022-08-19T08:54:10.062Z,14.83
2022-08-19T08:56:56.687Z,14.73
2022-08-19T08:59:52.379Z,14.33
2022-08-19T09:02:40.539Z,14.23
2022-08-19T09:05:48.599Z,13.13
2022-08-19T09:08:45.363Z,12.93
2022-08-19T09:11:45.831Z,13.33
2022-08-19T09:14:51.060Z,13.17
2022-08-19T09:17:40.180Z,11.17
2022-08-19T09:20:27.021Z,11.83
2022-08-19T09:23:13.830Z,11.40
2022-08-19T09:26:00.639Z,12.03
2022-08-19T09:28:49.935Z,11.50
2022-08-19T09:31:36.641Z,11.03
2022-08-19T09:34:24.797Z,11.70
2022-08-19T09:37:12.095Z,11.23
2022-08-19T09:40:01.751Z,12.03
2022-08-19T09:42:49.748Z,10.90
2022-08-19T09:45:37.722Z,10.70
2022-08-19T09:48:24.662Z,9.60
2022-08-19T09:51:17.093Z,10.63
2022-08-19T09:54:05.477Z,10.27
2022-08-19T09:56:52.050Z,11.33
2022-08-19T09:59:39.501Z,10.33
2022-08-19T10:02:26.004Z,10.70
2022-08-19T10:05:33.235Z,10.03
2022-08-19T10:08:26.744Z,9.53
2022-08-19T10:11:28.600Z,10.30
2022-08-19T10:14:24.730Z,10.40
2022-08-19T10:17:19.258Z,9.23
2022-08-19T10:20:09.281Z,9.63
2022-08-19T10:22:55.999Z,10.03
2022-08-19T10:25:44.829Z,9.73
2022-08-19T10:28:31.340Z,10.53
2022-08-19T10:31:21.605Z,10.03
2022-08-19T10:34:30.235Z,9.83
2022-08-19T10:37:23.650Z,9.93
2022-08-19T10:40:12.850Z,9.67
2022-08-19T10:43:00.927Z,9.40
2022-08-19T10:45:54.978Z,9.87
2022-08-19T10:48:42.067Z,10.77
2022-08-19T10:51:47.976Z,10.00
2022-08-19T10:54:53.378Z,10.17
2022-08-19T10:58:01.412Z,9.60
2022-08-19T11:00:55.683Z,10.10
2022-08-19T11:03:42.196Z,9.83
2022-08-19T11:06:30.390Z,10.47
2022-08-19T11:09:19.084Z,10.20
2022-08-19T11:12:05.887Z,10.37
2022-08-19T11:14:53.743Z,9.97
2022-08-19T11:17:43.836Z,10.40
2022-08-19T11:20:31.646Z,10.87
2022-08-19T11:23:18.339Z,9.53
2022-08-19T11:26:05.199Z,10.10
2022-08-19T11:28:54.539Z,10.20
2022-08-19T11:31:44.448Z,10.17
2022-08-19T11:34:33.941Z,9.57
2022-08-19T11:37:20.867Z,11.17
2022-08-19T11:40:09.561Z,9.57
2022-08-19T11:42:59.389Z,9.17
2022-08-19T11:45:45.926Z,9.30
2022-08-19T11:48:33.819Z,9.33
2022-08-19T11:51:25.774Z,9.20
2022-08-19T11:54:13.862Z,9.50
2022-08-19T11:57:00.669Z,10.03
2022-08-19T11:59:51.328Z,9.53
2022-08-19T12:02:38.203Z,9.47
2022-08-19T12:05:25.042Z,9.83
2022-08-19T12:08:13.890Z,9.40
2022-08-19T12:11:02.079Z,10.00
2022-08-19T12:13:48.850Z,10.60
2022-08-19T12:16:37.799Z,9.63
2022-08-19T12:19:28.275Z,10.37
2022-08-19T12:22:14.978Z,10.27
2022-08-19T12:25:03.094Z,10.40
2022-08-19T12:27:57.325Z,10.97
2022-08-19T12:30:46.368Z,10.50
2022-08-19T12:33:34.630Z,10.20
2022-08-19T12:36:23.457Z,10.80
2022-08-19T12:39:12.567Z,10.43
2022-08-19T12:42:03.090Z,10.47
2022-08-19T12:44:51.068Z,10.47
2022-08-19T12:47:38.221Z,10.87
2022-08-19T12:50:27.603Z,9.90
2022-08-19T12:53:15.244Z,9.97
2022-08-19T12:56:02.025Z,10.10
2022-08-19T12:58:52.761Z,9.57
2022-08-19T13:01:39.902Z,9.30
2022-08-19T13:04:26.534Z,10.60
2022-08-19T13:07:13.142Z,10.23
2022-08-19T13:10:00.155Z,10.30
2022-08-19T13:12:48.927Z,9.87
2022-08-19T13:15:38.292Z,9.93
2022-08-19T13:18:25.129Z,9.80
2022-08-19T13:21:14.257Z,9.77
2022-08-19T13:24:01.359Z,9.17
2022-08-19T13:26:48.657Z,9.83
2022-08-19T13:30:03.930Z,9.60
2022-08-19T13:33:10.336Z,9.00
2022-08-19T13:36:01.692Z,9.77
2022-08-19T13:38:48.465Z,8.87
2022-08-19T13:41:35.734Z,9.30
2022-08-19T13:44:22.980Z,9.77
2022-08-19T13:47:10.888Z,9.60
2022-08-19T13:49:58.750Z,9.87
2022-08-19T13:52:46.418Z,9.70
2022-08-19T13:55:33.193Z,9.57
2022-08-19T13:58:19.949Z,10.67
2022-08-19T14:01:07.075Z,10.43
2022-08-19T14:03:53.834Z,10.30
2022-08-19T14:06:41.940Z,9.63
2022-08-19T14:09:28.528Z,9.83
2022-08-19T14:12:16.067Z,10.67
2022-08-19T14:15:16.356Z,9.30
2022-08-19T14:18:02.877Z,10.30
2022-08-19T14:20:50.167Z,9.80
2022-08-19T14:23:38.250Z,10.43
2022-08-19T14:26:25.405Z,9.90
2022-08-19T14:29:12.111Z,10.40
2022-08-19T14:32:00.022Z,9.90
2022-08-19T14:34:47.682Z,9.90
2022-08-19T14:37:40.092Z,9.57
2022-08-19T14:40:34.445Z,10.27
2022-08-19T14:43:20.974Z,9.53
2022-08-19T14:46:09.126Z,10.00
2022-08-19T14:48:59.893Z,9.37
2022-08-19T14:51:48.008Z,9.27
2022-08-19T14:54:34.618Z,10.20
2022-08-19T14:57:23.471Z,9.83
2022-08-19T15:00:14.046Z,9.63
2022-08-19T15:03:04.175Z,9.33
2022-08-19T15:05:51.534Z,8.93
2022-08-19T15:08:40.592Z,9.03
2022-08-19T15:11:28.866Z,8.77
2022-08-19T15:14:17.761Z,9.13
2022-08-19T15:17:05.473Z,9.10
2022-08-19T15:19:52.172Z,10.07
2022-08-19T15:22:39.533Z,9.00
2022-08-19T15:25:27.407Z,9.40
2022-08-19T15:28:16.440Z,8.80
2022-08-19T15:31:08.158Z,9.30
2022-08-19T15:34:07.476Z,9.07
2022-08-19T15:36:54.484Z,9.10
2022-08-19T15:39:41.184Z,8.87
2022-08-19T15:42:29.900Z,8.40
2022-08-19T15:45:22.930Z,8.53
2022-08-19T15:48:11.549Z,9.00
2022-08-19T15:50:58.339Z,8.80
2022-08-19T15:53:45.689Z,8.53
2022-08-19T15:56:46.353Z,9.10
2022-08-19T16:00:03.388Z,8.90
2022-08-19T16:03:08.464Z,8.67
2022-08-19T16:06:14.353Z,8.57
2022-08-19T16:09:04.581Z,8.90
2022-08-19T16:11:56.585Z,9.17
2022-08-19T16:14:43.669Z,9.00
2022-08-19T16:17:30.585Z,8.63
2022-08-19T16:20:20.029Z,8.33
2022-08-19T16:23:08.316Z,9.10
2022-08-19T16:25:54.952Z,8.27
2022-08-19T16:28:42.815Z,8.37
2022-08-19T16:31:30.333Z,8.90
2022-08-19T16:34:17.226Z,8.43
2022-08-19T16:37:03.839Z,9.40
2022-08-19T16:39:52.225Z,8.87
2022-08-19T16:42:39.922Z,8.90
2022-08-19T16:45:26.706Z,9.70
2022-08-19T16:48:13.338Z,8.90
2022-08-19T16:51:00.972Z,8.67
2022-08-19T16:53:47.349Z,8.63
2022-08-19T16:56:36.209Z,8.20
2022-08-19T16:59:23.154Z,9.00
2022-08-19T17:02:09.826Z,9.13
2022-08-19T17:04:57.750Z,9.00
2022-08-19T17:07:45.726Z,8.50
2022-08-19T17:10:32.491Z,8.10
2022-08-19T17:13:20.612Z,9.00
2022-08-19T17:16:07.872Z,8.63
2022-08-19T17:18:55.584Z,8.57
2022-08-19T17:21:42.250Z,8.43
2022-08-19T17:24:29.584Z,9.03
2022-08-19T17:27:16.456Z,9.17
2022-08-19T17:30:06.870Z,8.70
2022-08-19T17:32:53.310Z,9.00
2022-08-19T17:35:43.718Z,8.63
2022-08-19T17:38:31.462Z,8.80
2022-08-19T17:41:19.000Z,8.97
2022-08-19T17:44:06.159Z,7.83
2022-08-19T17:46:56.323Z,8.87
2022-08-19T17:49:42.898Z,8.63
2022-08-19T17:52:29.813Z,8.77
2022-08-19T17:58:17.489Z,9.43
2022-08-19T18:01:08.514Z,9.53
2022-08-19T18:03:58.482Z,9.60
2022-08-19T18:06:46.899Z,9.17
2022-08-19T18:09:42.872Z,8.67
2022-08-19T18:12:36.811Z,8.73
2022-08-19T18:15:25.450Z,8.77
2022-08-19T18:18:15.339Z,9.30
2022-08-19T18:21:03.669Z,8.23
2022-08-19T18:23:50.592Z,8.77
2022-08-19T18:26:42.174Z,8.60
2022-08-19T18:29:33.401Z,9.63
2022-08-19T18:32:24.128Z,9.00
2022-08-19T18:35:13.960Z,8.60
2022-08-19T18:38:23.466Z,9.33
2022-08-19T18:41:28.234Z,8.73
2022-08-19T18:44:32.317Z,9.03
2022-08-19T18:47:36.818Z,8.40
2022-08-19T18:50:23.629Z,7.90
2022-08-19T18:53:12.218Z,8.30
2022-08-19T18:55:59.782Z,8.37
2022-08-19T18:58:47.451Z,7.43
2022-08-19T19:01:37.072Z,8.23
2022-08-19T19:04:26.377Z,7.73
2022-08-19T19:07:15.768Z,7.33
2022-08-19T19:10:09.582Z,8.07
2022-08-19T19:12:56.369Z,8.53
2022-08-19T19:15:44.134Z,8.63
2022-08-19T19:18:31.386Z,8.50
2022-08-19T19:21:18.458Z,8.30
2022-08-19T19:24:05.858Z,8.10
2022-08-19T19:26:54.453Z,8.53
2022-08-19T19:29:42.116Z,8.90
2022-08-19T19:32:38.394Z,8.40
2022-08-19T19:35:25.761Z,9.13
2022-08-19T19:38:12.320Z,8.90
2022-08-19T19:41:11.741Z,8.90
2022-08-19T19:44:29.786Z,8.30
2022-08-19T19:47:08.077Z,8.03
2022-08-19T19:50:14.436Z,8.27
2022-08-19T19:53:02.220Z,8.67
2022-08-19T19:55:49.013Z,8.90
2022-08-19T19:58:36.541Z,9.23
2022-08-19T20:01:27.224Z,8.67
2022-08-19T20:04:14.157Z,8.00
2022-08-19T20:07:00.815Z,9.03
2022-08-19T20:09:59.209Z,8.97
2022-08-19T20:12:47.156Z,9.07
2022-08-19T20:15:36.148Z,8.77
2022-08-19T20:18:27.306Z,8.50
2022-08-19T20:21:14.183Z,8.57
2022-08-19T20:24:09.845Z,9.07
2022-08-19T20:26:56.850Z,9.17
2022-08-19T20:29:44.211Z,8.63
2022-08-19T20:32:31.338Z,8.50
2022-08-19T20:35:22.092Z,8.40
2022-08-19T20:38:09.668Z,8.90
2022-08-19T20:40:56.143Z,9.17
2022-08-19T20:43:42.817Z,9.43
2022-08-19T20:46:32.022Z,9.27
2022-08-19T20:49:18.499Z,9.03
2022-08-19T20:52:07.349Z,9.40
2022-08-19T20:54:53.983Z,8.60
2022-08-19T20:57:41.155Z,8.53
2022-08-19T21:00:29.463Z,7.60
2022-08-19T21:03:19.702Z,8.30
2022-08-19T21:06:06.541Z,7.57
2022-08-19T21:08:55.598Z,8.10
2022-08-19T21:11:42.663Z,8.10
2022-08-19T21:14:29.152Z,8.67
2022-08-19T21:17:16.058Z,7.50
2022-08-19T21:20:03.558Z,8.60
2022-08-19T21:22:50.792Z,8.07
2022-08-19T21:25:39.326Z,8.37
2022-08-19T21:28:34.263Z,8.07
2022-08-19T21:31:23.100Z,8.03
2022-08-19T21:34:09.960Z,8.03
2022-08-19T21:36:56.669Z,7.83
2022-08-19T21:39:43.384Z,8.00
2022-08-19T21:42:31.549Z,8.63
2022-08-19T21:45:19.872Z,7.90
2022-08-19T21:48:07.638Z,7.90
2022-08-19T21:50:55.135Z,8.10
2022-08-19T21:53:41.969Z,8.10
2022-08-19T21:56:30.409Z,8.23
2022-08-19T21:59:18.650Z,7.60
2022-08-19T22:02:19.153Z,7.57
2022-08-19T22:05:07.777Z,8.13
2022-08-19T22:08:05.102Z,7.67
2022-08-19T22:10:55.805Z,8.10
2022-08-19T22:13:44.878Z,7.80
2022-08-19T22:16:33.846Z,7.77
2022-08-19T22:19:20.209Z,8.73
2022-08-19T22:22:07.383Z,8.43
2022-08-19T22:24:58.377Z,8.87
2022-08-19T22:27:45.457Z,8.77
2022-08-19T22:30:34.050Z,8.97
2022-08-19T22:33:22.678Z,8.90
2022-08-19T22:36:10.116Z,9.00
2022-08-19T22:38:56.975Z,8.20
2022-08-19T22:41:43.677Z,8.23
2022-08-19T22:44:30.429Z,8.23
2022-08-19T22:47:17.632Z,8.53
2022-08-19T22:50:08.637Z,9.27
2022-08-19T22:53:02.762Z,8.83
2022-08-19T22:55:49.375Z,8.67
2022-08-19T22:58:36.459Z,7.57
2022-08-19T23:01:29.842Z,8.57
2022-08-19T23:04:17.343Z,8.57
2022-08-19T23:07:07.712Z,9.13
2022-08-19T23:09:54.469Z,8.80
2022-08-19T23:12:45.449Z,8.90
2022-08-19T23:15:34.093Z,8.73
2022-08-19T23:18:21.178Z,8.73
2022-08-19T23:21:09.605Z,9.07
2022-08-19T23:23:57.675Z,8.60
2022-08-19T23:27:04.451Z,9.37
2022-08-19T23:30:08.598Z,7.87
2022-08-19T23:32:56.617Z,8.20
2022-08-19T23:35:43.393Z,8.03
2022-08-19T23:38:32.422Z,8.60
2022-08-19T23:41:23.219Z,8.00
2022-08-19T23:44:14.434Z,8.33
2022-08-19T23:47:04.809Z,7.73
2022-08-19T23:49:53.997Z,7.77
2022-08-19T23:52:45.617Z,7.37
2022-08-19T23:55:35.375Z,8.00
2022-08-19T23:58:24.348Z,8.40
